Berriozar, Spain
Current Conditions -  °F | °C
As of 2:30 PM on Sunday 23 Nov 2014 (Local Time) from LEPP Reporting Station
Few Clouds Few Clouds  
Wind Chill: 68°   Ceiling: Unl
Heat Index: 68°   Visibility: 6mi
Dew Point: 46°   Wind: 13mph
Humidity: 46%   Direction: 130°SE
Pressure: 29.94"   Gusts: NA
Location:  42.83°N, 1.67°W
Report Text: LEPP 231330Z 13011KT 080V170 9999 FEW040 20/08 Q1014
Loading
Personal Weather Stations






























Interactive Weather Map New forecast layout! Learn more

10-Day Weather Forecast

Advertisements
Track Severe Weather on mobile